createdAt,value
2024-01-27T00:00:32.699Z,97037.31
2024-01-27T00:02:59.375Z,97036.75
2024-01-27T00:05:28.326Z,97031.06
2024-01-27T00:07:56.925Z,97026.38
2024-01-27T00:10:23.601Z,97029.09
2024-01-27T00:12:50.265Z,97023.84
2024-01-27T00:15:16.764Z,97030.78
2024-01-27T00:17:43.607Z,97032.72
2024-01-27T00:20:11.280Z,97028.81
2024-01-27T00:22:37.819Z,97024.91
2024-01-27T00:25:04.866Z,97018.81
2024-01-27T00:27:31.584Z,97019.06
2024-01-27T00:29:58.581Z,97021.25
2024-01-27T00:32:25.428Z,97022.84
2024-01-27T00:34:54.845Z,97021.31
2024-01-27T00:37:23.843Z,97022.13
2024-01-27T00:39:51.008Z,97017.94
2024-01-27T00:42:17.882Z,97025.38
2024-01-27T00:44:44.849Z,97026.81
2024-01-27T00:47:11.834Z,97019.31
2024-01-27T00:49:38.911Z,97022.75
2024-01-27T00:52:06.537Z,97017.13
2024-01-27T00:54:33.559Z,97009.59
2024-01-27T00:57:00.430Z,97022.75
2024-01-27T00:59:27.830Z,97027.84
2024-01-27T01:01:54.959Z,97029.06
2024-01-27T01:04:22.046Z,97028.03
2024-01-27T01:06:48.712Z,97018.63
2024-01-27T01:09:15.418Z,97019.03
2024-01-27T01:11:42.143Z,97018.06
2024-01-27T01:14:08.851Z,97016.63
2024-01-27T01:16:35.603Z,97013.34
2024-01-27T01:19:03.716Z,97016.03
2024-01-27T01:21:30.651Z,97012.19
2024-01-27T01:23:57.738Z,97012.75
2024-01-27T01:26:25.907Z,97009.66
2024-01-27T01:28:53.307Z,97010.03
2024-01-27T01:31:19.926Z,97017.19
2024-01-27T01:33:46.751Z,97010.72
2024-01-27T01:36:16.805Z,97005.44
2024-01-27T01:38:43.455Z,97011.56
2024-01-27T01:41:10.117Z,97018.13
2024-01-27T01:43:36.821Z,97011.44
2024-01-27T01:46:04.092Z,97007.28
2024-01-27T01:48:31.228Z,97018.38
2024-01-27T01:51:00.906Z,97018.91
2024-01-27T01:53:27.908Z,97013.44
2024-01-27T01:55:54.990Z,97016.91
2024-01-27T01:58:21.527Z,97015.44
2024-01-27T02:00:52.034Z,97018.06
2024-01-27T02:03:18.830Z,97021.56
2024-01-27T02:05:45.901Z,97021.06
2024-01-27T02:08:12.779Z,97028.78
2024-01-27T02:10:39.575Z,97016.38
2024-01-27T02:13:24.817Z,97020.19
2024-01-27T02:15:51.947Z,97020.75
2024-01-27T02:18:18.957Z,97022.44
2024-01-27T02:20:45.842Z,97023.78
2024-01-27T02:23:12.651Z,97011.91
2024-01-27T02:25:39.408Z,97021.44
2024-01-27T02:28:06.969Z,97024.31
2024-01-27T02:30:33.609Z,97021.13
2024-01-27T02:33:00.475Z,97027.44
2024-01-27T02:35:27.335Z,97024.72
2024-01-27T02:37:53.851Z,97021.03
2024-01-27T02:40:20.535Z,97028.19
2024-01-27T02:42:47.356Z,97027.72
2024-01-27T02:45:14.025Z,97032.03
2024-01-27T02:47:41.264Z,97028.44
2024-01-27T02:50:08.564Z,97028.44
2024-01-27T02:52:35.217Z,97020.22
2024-01-27T02:55:02.252Z,97020.97
2024-01-27T02:57:28.959Z,97026.47
2024-01-27T02:59:55.827Z,97024.19
2024-01-27T03:02:22.753Z,97017.97
2024-01-27T03:04:49.316Z,97013.56
2024-01-27T03:07:15.941Z,97025.09
2024-01-27T03:09:42.696Z,97028.44
2024-01-27T03:12:09.645Z,97028.09
2024-01-27T03:14:36.265Z,97029.38
2024-01-27T03:17:03.225Z,97036.03
2024-01-27T03:19:30.153Z,97042.47
2024-01-27T03:21:56.950Z,97043.88
2024-01-27T03:24:23.574Z,97045.03
2024-01-27T03:26:50.198Z,97036.19
2024-01-27T03:29:16.769Z,97050.06
2024-01-27T03:31:43.402Z,97046.31
2024-01-27T03:34:10.064Z,97043.53
2024-01-27T03:36:36.886Z,97048.88
2024-01-27T03:39:03.612Z,97052.16
2024-01-27T03:41:30.288Z,97059.81
2024-01-27T03:43:56.859Z,97048.19
2024-01-27T03:46:23.579Z,97046.00
2024-01-27T03:48:52.822Z,97048.81
2024-01-27T03:51:19.943Z,97051.19
2024-01-27T03:53:49.433Z,97058.03
2024-01-27T03:56:15.941Z,97053.34
2024-01-27T03:58:42.581Z,97054.06
2024-01-27T04:01:09.278Z,97059.06
2024-01-27T04:03:36.038Z,97054.94
2024-01-27T04:06:02.738Z,97058.53
2024-01-27T04:08:32.124Z,97055.72
2024-01-27T04:10:58.886Z,97059.47
2024-01-27T04:13:25.749Z,97066.72
2024-01-27T04:15:52.308Z,97062.66
2024-01-27T04:18:19.046Z,97062.75
2024-01-27T04:20:48.906Z,97062.25
2024-01-27T04:23:15.735Z,97055.88
2024-01-27T04:25:44.097Z,97067.03
2024-01-27T04:28:11.128Z,97056.81
2024-01-27T04:30:41.729Z,97054.56
2024-01-27T04:33:09.086Z,97065.16
2024-01-27T04:35:36.144Z,97064.41
2024-01-27T04:38:02.709Z,97071.00
2024-01-27T04:40:29.561Z,97073.53
2024-01-27T04:42:56.397Z,97075.41
2024-01-27T04:45:23.100Z,97073.00
2024-01-27T04:47:49.856Z,97084.63
2024-01-27T04:50:16.830Z,97069.66
2024-01-27T04:52:43.378Z,97067.09
2024-01-27T04:55:09.991Z,97063.50
2024-01-27T04:57:36.692Z,97069.47
2024-01-27T05:00:04.126Z,97062.50
2024-01-27T05:02:30.898Z,97075.06
2024-01-27T05:04:57.723Z,97071.50
2024-01-27T05:07:24.431Z,97077.66
2024-01-27T05:09:51.290Z,97082.03
2024-01-27T05:12:18.237Z,97077.97
2024-01-27T05:14:46.129Z,97082.28
2024-01-27T05:17:12.703Z,97075.16
2024-01-27T05:19:39.523Z,97074.22
2024-01-27T05:22:07.608Z,97075.72
2024-01-27T05:24:34.320Z,97075.97
2024-01-27T05:27:00.866Z,97072.19
2024-01-27T05:29:29.226Z,97075.06
2024-01-27T05:31:55.759Z,97064.53
2024-01-27T05:34:22.791Z,97076.47
2024-01-27T05:36:49.514Z,97079.13
2024-01-27T05:39:16.234Z,97074.94
2024-01-27T05:41:42.875Z,97082.94
2024-01-27T05:44:09.541Z,97084.38
2024-01-27T05:46:36.084Z,97092.94
2024-01-27T05:49:03.184Z,97100.38
2024-01-27T05:51:30.079Z,97103.94
2024-01-27T05:53:57.072Z,97107.91
2024-01-27T05:56:23.599Z,97109.09
2024-01-27T05:58:50.555Z,97104.84
2024-01-27T06:01:19.315Z,97103.28
2024-01-27T06:03:46.256Z,97110.84
2024-01-27T06:06:12.892Z,97114.31
2024-01-27T06:08:39.563Z,97110.28
2024-01-27T06:11:09.785Z,97109.81
2024-01-27T06:13:36.992Z,97110.84
2024-01-27T06:16:07.773Z,97109.06
2024-01-27T06:18:34.723Z,97117.03
2024-01-27T06:21:01.634Z,97116.56
2024-01-27T06:23:28.178Z,97118.13
2024-01-27T06:25:54.823Z,97117.53
2024-01-27T06:28:21.524Z,97118.09
2024-01-27T06:30:48.390Z,97126.97
2024-01-27T06:33:15.145Z,97132.75
2024-01-27T06:35:42.102Z,97124.44
2024-01-27T06:38:08.917Z,97126.81
2024-01-27T06:40:35.870Z,97124.72
2024-01-27T06:43:04.454Z,97129.72
2024-01-27T06:45:31.660Z,97126.47
2024-01-27T06:47:58.756Z,97126.16
2024-01-27T06:50:28.028Z,97129.72
2024-01-27T06:52:54.844Z,97132.59
2024-01-27T06:55:21.497Z,97141.19
2024-01-27T06:57:48.145Z,97139.47
2024-01-27T07:00:17.886Z,97139.44
2024-01-27T07:02:45.035Z,97140.88
2024-01-27T07:05:12.035Z,97142.06
2024-01-27T07:07:38.997Z,97141.06
2024-01-27T07:10:07.697Z,97141.06
2024-01-27T07:12:34.974Z,97140.97
2024-01-27T07:15:01.842Z,97134.84
2024-01-27T07:17:28.746Z,97142.34
2024-01-27T07:19:56.099Z,97142.69
2024-01-27T07:22:24.065Z,97150.47
2024-01-27T07:24:50.616Z,97150.50
2024-01-27T07:27:17.492Z,97157.66
2024-01-27T07:29:44.609Z,97165.06
2024-01-27T07:32:11.385Z,97160.53
2024-01-27T07:34:37.907Z,97160.75
2024-01-27T07:37:04.604Z,97158.34
2024-01-27T07:39:31.847Z,97160.50
2024-01-27T07:41:59.041Z,97153.44
2024-01-27T07:44:26.019Z,97146.91
2024-01-27T07:46:53.082Z,97150.84
2024-01-27T07:49:20.339Z,97145.25
2024-01-27T07:51:47.174Z,97142.38
2024-01-27T07:54:14.249Z,97140.81
2024-01-27T07:56:45.082Z,97142.47
2024-01-27T07:59:15.193Z,97128.63
2024-01-27T08:01:48.365Z,97137.31
2024-01-27T08:04:21.553Z,97131.25
2024-01-27T08:06:55.740Z,97130.16
2024-01-27T08:09:27.001Z,97127.72
2024-01-27T08:11:55.953Z,97124.84
2024-01-27T08:14:23.167Z,97127.19
2024-01-27T08:16:59.113Z,97131.66
2024-01-27T08:19:26.440Z,97133.41
2024-01-27T08:21:55.651Z,97128.16
2024-01-27T08:24:28.462Z,97135.56
2024-01-27T08:26:55.394Z,97137.59
2024-01-27T08:29:22.933Z,97139.00
2024-01-27T08:31:54.484Z,97141.53
2024-01-27T08:34:21.625Z,97149.66
2024-01-27T08:36:48.497Z,97154.41
2024-01-27T08:39:15.576Z,97147.69
2024-01-27T08:41:43.060Z,97149.38
2024-01-27T08:44:12.000Z,97143.59
2024-01-27T08:46:39.314Z,97145.16
2024-01-27T08:49:06.425Z,97152.69
2024-01-27T08:51:35.177Z,97150.28
2024-01-27T08:54:02.409Z,97152.63
2024-01-27T08:56:29.569Z,97139.66
2024-01-27T08:59:03.999Z,97135.78
2024-01-27T09:01:31.135Z,97138.88
2024-01-27T09:03:58.230Z,97138.59
2024-01-27T09:06:32.190Z,97143.41
2024-01-27T09:08:59.947Z,97147.22
2024-01-27T09:11:27.275Z,97144.75
2024-01-27T09:13:57.817Z,97146.41
2024-01-27T10:06:38.515Z,97162.50
2024-01-27T10:09:09.480Z,97156.53
2024-01-27T10:14:51.453Z,97165.84
2024-01-27T10:17:26.888Z,97163.88
2024-01-27T10:20:06.951Z,97157.09
2024-01-27T10:22:44.976Z,97154.94
2024-01-27T10:25:16.157Z,97162.44
2024-01-27T10:27:43.672Z,97159.25
2024-01-27T10:30:19.856Z,97152.72
2024-01-27T10:39:11.925Z,97159.84
2024-01-27T10:41:56.439Z,97161.63
2024-01-27T10:44:36.590Z,97151.94
2024-01-27T10:47:26.055Z,97153.56
2024-01-27T10:49:56.001Z,97155.22
2024-01-27T12:31:30.226Z,97070.84
2024-01-27T12:41:43.891Z,97065.53
2024-01-27T12:48:28.369Z,97055.56
2024-01-27T13:15:39.242Z,97043.75
2024-01-27T13:18:56.505Z,97044.38
2024-01-27T13:21:29.114Z,97038.31
2024-01-27T13:24:01.232Z,97044.31
2024-01-27T13:26:31.406Z,97042.69
2024-01-27T13:28:58.734Z,97032.09
2024-01-27T13:31:29.322Z,97040.28
2024-01-27T13:33:56.547Z,97032.47
2024-01-27T13:36:23.526Z,97040.91
2024-01-27T13:38:50.540Z,97041.09
2024-01-27T13:41:23.439Z,97039.84
2024-01-27T13:43:50.188Z,97042.97
2024-01-27T13:46:19.889Z,97039.03
2024-01-27T13:48:59.622Z,97042.88
2024-01-27T14:52:22.830Z,97051.19
2024-01-27T14:55:25.715Z,97048.13
2024-01-27T14:58:02.302Z,97050.22
2024-01-27T15:04:48.254Z,97043.25
2024-01-27T15:07:15.387Z,97035.06
2024-01-27T15:13:01.265Z,97030.88
2024-01-27T15:30:00.462Z,97038.88
2024-01-27T15:32:27.304Z,97046.91
2024-01-27T15:38:17.805Z,97044.41
2024-01-27T15:47:12.352Z,97043.03
2024-01-27T16:46:13.857Z,97068.78
2024-01-27T16:48:43.177Z,97057.09
2024-01-27T16:51:12.963Z,97056.66
2024-01-27T17:14:19.601Z,97070.09
2024-01-27T17:20:17.939Z,97073.59
2024-01-27T18:05:28.409Z,97064.91
2024-01-27T18:08:18.436Z,97071.44
2024-01-27T18:10:56.175Z,97083.50
2024-01-27T18:13:30.185Z,97082.56
2024-01-27T18:16:10.651Z,97087.34
2024-01-27T18:18:47.117Z,97088.63
2024-01-27T18:25:49.929Z,97089.72
2024-01-27T18:28:10.257Z,97096.34
2024-01-27T18:34:16.142Z,97103.25
2024-01-27T18:36:43.382Z,97105.09
2024-01-27T18:43:25.963Z,97112.34
2024-01-27T18:48:59.137Z,97110.44
2024-01-27T18:52:01.230Z,97104.22
2024-01-27T18:54:52.279Z,97113.78
2024-01-27T19:00:39.638Z,97115.91
2024-01-27T19:03:20.951Z,97107.75
2024-01-27T19:06:12.707Z,97114.38
2024-01-27T19:12:00.640Z,97101.13
2024-01-27T19:15:23.087Z,97096.13
2024-01-27T19:17:57.871Z,97109.22
2024-01-27T19:28:40.562Z,97121.19
2024-01-27T19:31:39.754Z,97120.31
2024-01-27T19:35:01.832Z,97118.84
2024-01-27T19:37:31.204Z,97114.97
2024-01-27T19:39:57.831Z,97122.44
2024-01-27T19:42:27.147Z,97123.91
2024-01-27T19:45:05.106Z,97126.09
2024-01-27T19:47:55.370Z,97127.47
2024-01-27T19:50:27.964Z,97130.25
2024-01-27T19:52:54.751Z,97132.41
2024-01-27T19:55:21.839Z,97126.06
2024-01-27T19:57:49.105Z,97130.84
2024-01-27T20:00:36.648Z,97126.19
2024-01-27T20:03:32.395Z,97120.06
2024-01-27T20:06:10.473Z,97129.91
2024-01-27T20:08:45.470Z,97127.53
2024-01-27T20:11:12.212Z,97131.50
2024-01-27T20:13:42.098Z,97127.09
2024-01-27T20:16:09.349Z,97133.06
2024-01-27T20:18:36.080Z,97134.13
2024-01-27T20:21:02.667Z,97131.66
2024-01-27T20:23:29.356Z,97132.72
2024-01-27T20:25:56.080Z,97137.63
2024-01-27T20:28:23.179Z,97132.59
2024-01-27T20:31:01.712Z,97127.09
2024-01-27T20:33:36.960Z,97128.09
2024-01-27T20:36:10.790Z,97127.13
2024-01-27T20:39:08.934Z,97128.06
2024-01-27T20:44:38.649Z,97126.59
2024-01-27T20:47:07.866Z,97127.53
2024-01-27T20:49:37.153Z,97125.06
2024-01-27T20:52:05.006Z,97124.28
2024-01-27T20:54:33.741Z,97120.06
2024-01-27T20:57:00.616Z,97116.00
2024-01-27T20:59:27.219Z,97115.94
2024-01-27T21:01:53.846Z,97124.47
2024-01-27T21:04:20.728Z,97126.00
2024-01-27T21:06:47.911Z,97115.19
2024-01-27T21:09:15.082Z,97110.91
2024-01-27T21:11:42.734Z,97112.41
2024-01-27T21:14:09.606Z,97115.13
2024-01-27T21:16:36.378Z,97117.41
2024-01-27T21:19:03.097Z,97118.25
2024-01-27T21:21:29.811Z,97115.44
2024-01-27T21:23:56.471Z,97117.19
2024-01-27T21:26:23.064Z,97105.53
2024-01-27T21:28:49.827Z,97116.31
2024-01-27T21:31:16.579Z,97114.66
2024-01-27T21:33:43.443Z,97105.22
2024-01-27T21:36:13.137Z,97112.69
2024-01-27T21:38:39.746Z,97105.47
2024-01-27T21:41:06.250Z,97109.84
2024-01-27T21:43:32.862Z,97114.06
2024-01-27T21:45:59.550Z,97111.13
2024-01-27T21:48:26.370Z,97107.56
2024-01-27T21:50:53.784Z,97117.81
2024-01-27T21:53:30.266Z,97109.50
2024-01-27T21:55:56.864Z,97113.00
2024-01-27T21:58:23.465Z,97105.03
2024-01-27T22:00:50.432Z,97108.16
2024-01-27T22:03:17.590Z,97110.63
2024-01-27T22:05:44.332Z,97104.03
2024-01-27T22:08:10.973Z,97103.06
2024-01-27T22:10:37.651Z,97106.91
2024-01-27T22:13:04.665Z,97101.97
2024-01-27T22:15:31.483Z,97104.38
2024-01-27T22:17:58.589Z,97103.56
2024-01-27T22:20:25.576Z,97107.28
2024-01-27T22:22:52.108Z,97104.78
2024-01-27T22:26:30.113Z,97101.81
2024-01-27T22:28:45.002Z,97106.34
2024-01-27T22:31:17.835Z,97101.94
2024-01-27T22:33:44.756Z,97104.78
2024-01-27T22:36:11.860Z,97101.44
2024-01-27T22:38:38.491Z,97106.56
2024-01-27T22:41:05.472Z,97104.19
2024-01-27T22:43:32.266Z,97102.97
2024-01-27T22:45:58.981Z,97104.34
2024-01-27T22:48:25.740Z,97107.47
2024-01-27T22:51:13.716Z,97106.59
2024-01-27T22:53:45.790Z,97104.31
2024-01-27T22:56:44.841Z,97104.78
2024-01-27T23:10:02.944Z,97109.38
2024-01-27T23:12:47.391Z,97095.97
2024-01-27T23:15:40.081Z,97099.16
2024-01-27T23:18:25.026Z,97102.94
2024-01-27T23:24:26.071Z,97096.25
2024-01-27T23:27:23.668Z,97100.50
